sensor_id;sensor_type;location;lat;lon;timestamp;P1;durP1;ratioP1;P2;durP2;ratioP2
60006;SDS011;45863;50.336;3.536;2022-12-07T00:00:09;31.73;;;19.17;;
60006;SDS011;45863;50.336;3.536;2022-12-07T00:02:37;34.80;;;20.25;;
60006;SDS011;45863;50.336;3.536;2022-12-07T00:05:03;31.17;;;19.15;;
60006;SDS011;45863;50.336;3.536;2022-12-07T00:07:28;31.15;;;18.95;;
60006;SDS011;45863;50.336;3.536;2022-12-07T00:09:54;31.67;;;18.80;;
60006;SDS011;45863;50.336;3.536;2022-12-07T00:12:19;31.27;;;18.80;;
60006;SDS011;45863;50.336;3.536;2022-12-07T00:14:45;30.05;;;18.20;;
60006;SDS011;45863;50.336;3.536;2022-12-07T00:17:11;29.42;;;18.88;;
60006;SDS011;45863;50.336;3.536;2022-12-07T00:19:47;35.95;;;19.13;;
60006;SDS011;45863;50.336;3.536;2022-12-07T00:22:12;32.22;;;19.75;;
60006;SDS011;45863;50.336;3.536;2022-12-07T00:24:40;36.20;;;20.50;;
60006;SDS011;45863;50.336;3.536;2022-12-07T00:27:06;33.90;;;19.60;;
60006;SDS011;45863;50.336;3.536;2022-12-07T00:29:31;31.52;;;19.95;;
60006;SDS011;45863;50.336;3.536;2022-12-07T00:31:56;33.50;;;18.85;;
60006;SDS011;45863;50.336;3.536;2022-12-07T00:34:22;35.83;;;18.75;;
60006;SDS011;45863;50.336;3.536;2022-12-07T00:36:47;35.75;;;19.25;;
60006;SDS011;45863;50.336;3.536;2022-12-07T00:39:13;34.28;;;19.00;;
60006;SDS011;45863;50.336;3.536;2022-12-07T00:41:38;32.67;;;19.17;;
60006;SDS011;45863;50.336;3.536;2022-12-07T00:44:04;30.00;;;19.13;;
60006;SDS011;45863;50.336;3.536;2022-12-07T00:46:29;30.38;;;18.42;;
60006;SDS011;45863;50.336;3.536;2022-12-07T00:48:55;29.98;;;17.00;;
60006;SDS011;45863;50.336;3.536;2022-12-07T00:51:21;32.17;;;17.42;;
60006;SDS011;45863;50.336;3.536;2022-12-07T00:53:47;27.83;;;17.13;;
60006;SDS011;45863;50.336;3.536;2022-12-07T00:56:13;28.92;;;17.10;;
60006;SDS011;45863;50.336;3.536;2022-12-07T00:58:39;30.58;;;18.02;;
60006;SDS011;45863;50.336;3.536;2022-12-07T01:01:04;28.58;;;17.70;;
60006;SDS011;45863;50.336;3.536;2022-12-07T01:03:30;27.80;;;16.67;;
60006;SDS011;45863;50.336;3.536;2022-12-07T01:05:56;28.40;;;16.35;;
60006;SDS011;45863;50.336;3.536;2022-12-07T01:08:21;27.45;;;16.58;;
60006;SDS011;45863;50.336;3.536;2022-12-07T01:10:47;29.23;;;17.13;;
60006;SDS011;45863;50.336;3.536;2022-12-07T01:13:16;29.10;;;17.33;;
60006;SDS011;45863;50.336;3.536;2022-12-07T01:15:41;27.92;;;18.23;;
60006;SDS011;45863;50.336;3.536;2022-12-07T01:18:08;29.25;;;18.13;;
60006;SDS011;45863;50.336;3.536;2022-12-07T01:20:33;25.05;;;16.33;;
60006;SDS011;45863;50.336;3.536;2022-12-07T01:22:59;28.85;;;17.15;;
60006;SDS011;45863;50.336;3.536;2022-12-07T01:25:24;29.05;;;17.30;;
60006;SDS011;45863;50.336;3.536;2022-12-07T01:27:49;33.60;;;18.65;;
60006;SDS011;45863;50.336;3.536;2022-12-07T01:30:15;30.90;;;16.15;;
60006;SDS011;45863;50.336;3.536;2022-12-07T01:32:40;32.83;;;17.40;;
60006;SDS011;45863;50.336;3.536;2022-12-07T01:35:05;28.83;;;17.75;;
60006;SDS011;45863;50.336;3.536;2022-12-07T01:37:35;27.50;;;17.25;;
60006;SDS011;45863;50.336;3.536;2022-12-07T01:40:01;28.27;;;17.20;;
60006;SDS011;45863;50.336;3.536;2022-12-07T01:42:27;32.50;;;17.98;;
60006;SDS011;45863;50.336;3.536;2022-12-07T01:47:37;30.75;;;17.27;;
60006;SDS011;45863;50.336;3.536;2022-12-07T01:50:02;31.38;;;17.92;;
60006;SDS011;45863;50.336;3.536;2022-12-07T01:52:28;31.15;;;15.80;;
60006;SDS011;45863;50.336;3.536;2022-12-07T01:54:56;29.25;;;16.80;;
60006;SDS011;45863;50.336;3.536;2022-12-07T01:57:22;33.50;;;17.20;;
60006;SDS011;45863;50.336;3.536;2022-12-07T01:59:48;28.98;;;16.40;;
60006;SDS011;45863;50.336;3.536;2022-12-07T02:02:31;29.13;;;16.85;;
60006;SDS011;45863;50.336;3.536;2022-12-07T02:04:58;28.13;;;16.30;;
60006;SDS011;45863;50.336;3.536;2022-12-07T02:07:23;29.63;;;17.20;;
60006;SDS011;45863;50.336;3.536;2022-12-07T02:09:50;29.88;;;17.15;;
60006;SDS011;45863;50.336;3.536;2022-12-07T02:12:15;27.95;;;16.83;;
60006;SDS011;45863;50.336;3.536;2022-12-07T02:14:40;29.52;;;16.67;;
60006;SDS011;45863;50.336;3.536;2022-12-07T02:17:14;30.42;;;16.58;;
60006;SDS011;45863;50.336;3.536;2022-12-07T02:20:02;29.20;;;16.00;;
60006;SDS011;45863;50.336;3.536;2022-12-07T02:34:58;29.13;;;16.17;;
60006;SDS011;45863;50.336;3.536;2022-12-07T02:37:48;30.67;;;16.30;;
60006;SDS011;45863;50.336;3.536;2022-12-07T02:40:17;31.88;;;18.33;;
60006;SDS011;45863;50.336;3.536;2022-12-07T02:42:45;33.00;;;16.50;;
60006;SDS011;45863;50.336;3.536;2022-12-07T02:45:12;28.48;;;17.60;;
60006;SDS011;45863;50.336;3.536;2022-12-07T02:47:38;30.42;;;16.67;;
60006;SDS011;45863;50.336;3.536;2022-12-07T02:50:05;35.97;;;17.60;;
60006;SDS011;45863;50.336;3.536;2022-12-07T02:52:31;30.65;;;16.30;;
60006;SDS011;45863;50.336;3.536;2022-12-07T02:54:56;29.52;;;16.80;;
60006;SDS011;45863;50.336;3.536;2022-12-07T03:02:46;29.33;;;17.15;;
60006;SDS011;45863;50.336;3.536;2022-12-07T03:13:04;30.83;;;16.70;;
60006;SDS011;45863;50.336;3.536;2022-12-07T03:15:34;33.80;;;17.48;;
60006;SDS011;45863;50.336;3.536;2022-12-07T03:18:00;35.40;;;18.20;;
60006;SDS011;45863;50.336;3.536;2022-12-07T03:20:27;34.72;;;16.52;;
60006;SDS011;45863;50.336;3.536;2022-12-07T03:22:54;33.22;;;17.77;;
60006;SDS011;45863;50.336;3.536;2022-12-07T03:25:19;31.88;;;17.08;;
60006;SDS011;45863;50.336;3.536;2022-12-07T03:27:46;33.35;;;17.33;;
60006;SDS011;45863;50.336;3.536;2022-12-07T03:30:15;32.58;;;18.02;;
60006;SDS011;45863;50.336;3.536;2022-12-07T03:35:11;30.83;;;17.37;;
60006;SDS011;45863;50.336;3.536;2022-12-07T03:37:40;36.05;;;18.33;;
60006;SDS011;45863;50.336;3.536;2022-12-07T03:42:50;30.95;;;17.35;;
60006;SDS011;45863;50.336;3.536;2022-12-07T03:45:17;32.92;;;17.98;;
60006;SDS011;45863;50.336;3.536;2022-12-07T03:47:46;34.58;;;16.77;;
60006;SDS011;45863;50.336;3.536;2022-12-07T03:50:28;34.75;;;18.10;;
60006;SDS011;45863;50.336;3.536;2022-12-07T03:55:56;31.73;;;17.35;;
60006;SDS011;45863;50.336;3.536;2022-12-07T03:58:22;35.13;;;17.00;;
60006;SDS011;45863;50.336;3.536;2022-12-07T04:00:48;33.38;;;17.58;;
60006;SDS011;45863;50.336;3.536;2022-12-07T04:03:14;33.80;;;16.88;;
60006;SDS011;45863;50.336;3.536;2022-12-07T04:05:39;35.15;;;17.10;;
60006;SDS011;45863;50.336;3.536;2022-12-07T04:08:04;37.20;;;18.40;;
60006;SDS011;45863;50.336;3.536;2022-12-07T04:10:29;32.58;;;18.20;;
60006;SDS011;45863;50.336;3.536;2022-12-07T04:12:55;36.38;;;18.00;;
60006;SDS011;45863;50.336;3.536;2022-12-07T04:15:20;40.20;;;17.73;;
60006;SDS011;45863;50.336;3.536;2022-12-07T04:17:45;34.22;;;17.55;;
60006;SDS011;45863;50.336;3.536;2022-12-07T04:20:11;31.27;;;18.40;;
60006;SDS011;45863;50.336;3.536;2022-12-07T04:22:36;28.27;;;16.77;;
60006;SDS011;45863;50.336;3.536;2022-12-07T04:25:01;40.30;;;17.77;;
60006;SDS011;45863;50.336;3.536;2022-12-07T04:27:27;35.42;;;17.65;;
60006;SDS011;45863;50.336;3.536;2022-12-07T04:29:52;32.08;;;18.08;;
60006;SDS011;45863;50.336;3.536;2022-12-07T04:32:17;33.58;;;17.92;;
60006;SDS011;45863;50.336;3.536;2022-12-07T04:34:43;32.50;;;17.20;;
60006;SDS011;45863;50.336;3.536;2022-12-07T04:37:08;36.55;;;18.13;;
60006;SDS011;45863;50.336;3.536;2022-12-07T04:39:33;32.53;;;17.02;;
60006;SDS011;45863;50.336;3.536;2022-12-07T04:41:59;37.90;;;18.38;;
60006;SDS011;45863;50.336;3.536;2022-12-07T04:44:24;35.25;;;18.00;;
60006;SDS011;45863;50.336;3.536;2022-12-07T04:47:01;35.63;;;17.67;;
60006;SDS011;45863;50.336;3.536;2022-12-07T04:49:26;37.30;;;17.83;;
60006;SDS011;45863;50.336;3.536;2022-12-07T04:51:52;38.53;;;18.35;;
60006;SDS011;45863;50.336;3.536;2022-12-07T04:54:25;38.67;;;18.73;;
60006;SDS011;45863;50.336;3.536;2022-12-07T04:59:42;40.13;;;18.75;;
60006;SDS011;45863;50.336;3.536;2022-12-07T05:02:41;34.08;;;17.98;;
60006;SDS011;45863;50.336;3.536;2022-12-07T05:05:10;33.53;;;17.90;;
60006;SDS011;45863;50.336;3.536;2022-12-07T05:07:35;37.38;;;19.05;;
60006;SDS011;45863;50.336;3.536;2022-12-07T05:10:00;36.67;;;19.17;;
60006;SDS011;45863;50.336;3.536;2022-12-07T05:12:28;33.25;;;17.58;;
60006;SDS011;45863;50.336;3.536;2022-12-07T05:15:04;35.63;;;18.02;;
60006;SDS011;45863;50.336;3.536;2022-12-07T05:17:41;35.45;;;17.58;;
60006;SDS011;45863;50.336;3.536;2022-12-07T05:20:18;30.42;;;16.23;;
60006;SDS011;45863;50.336;3.536;2022-12-07T05:23:07;34.65;;;17.52;;
60006;SDS011;45863;50.336;3.536;2022-12-07T05:25:33;33.65;;;17.58;;
60006;SDS011;45863;50.336;3.536;2022-12-07T05:27:58;34.05;;;18.27;;
60006;SDS011;45863;50.336;3.536;2022-12-07T05:30:24;34.67;;;16.90;;
60006;SDS011;45863;50.336;3.536;2022-12-07T05:32:49;34.78;;;17.55;;
60006;SDS011;45863;50.336;3.536;2022-12-07T05:35:15;33.13;;;17.35;;
60006;SDS011;45863;50.336;3.536;2022-12-07T05:37:40;32.60;;;17.75;;
60006;SDS011;45863;50.336;3.536;2022-12-07T05:40:06;36.75;;;18.80;;
60006;SDS011;45863;50.336;3.536;2022-12-07T05:42:31;39.65;;;21.45;;
60006;SDS011;45863;50.336;3.536;2022-12-07T05:44:56;39.35;;;21.33;;
60006;SDS011;45863;50.336;3.536;2022-12-07T05:47:22;39.53;;;20.75;;
60006;SDS011;45863;50.336;3.536;2022-12-07T05:50:00;41.03;;;20.10;;
60006;SDS011;45863;50.336;3.536;2022-12-07T05:53:01;27.52;;;14.02;;
60006;SDS011;45863;50.336;3.536;2022-12-07T05:55:34;37.70;;;18.20;;
60006;SDS011;45863;50.336;3.536;2022-12-07T05:57:59;41.08;;;18.58;;
60006;SDS011;45863;50.336;3.536;2022-12-07T06:00:43;41.38;;;20.20;;
60006;SDS011;45863;50.336;3.536;2022-12-07T06:03:09;39.58;;;18.88;;
60006;SDS011;45863;50.336;3.536;2022-12-07T06:05:34;43.08;;;20.05;;
60006;SDS011;45863;50.336;3.536;2022-12-07T06:08:00;38.60;;;18.60;;
60006;SDS011;45863;50.336;3.536;2022-12-07T06:10:26;43.42;;;19.42;;
60006;SDS011;45863;50.336;3.536;2022-12-07T06:12:54;46.17;;;20.58;;
60006;SDS011;45863;50.336;3.536;2022-12-07T06:15:19;39.58;;;19.95;;
60006;SDS011;45863;50.336;3.536;2022-12-07T06:17:44;46.35;;;20.50;;
60006;SDS011;45863;50.336;3.536;2022-12-07T06:20:09;41.63;;;20.48;;
60006;SDS011;45863;50.336;3.536;2022-12-07T06:22:35;41.97;;;20.52;;
60006;SDS011;45863;50.336;3.536;2022-12-07T06:25:00;41.28;;;20.42;;
60006;SDS011;45863;50.336;3.536;2022-12-07T06:27:26;45.38;;;20.42;;
60006;SDS011;45863;50.336;3.536;2022-12-07T06:29:51;43.97;;;21.58;;
60006;SDS011;45863;50.336;3.536;2022-12-07T06:32:17;43.45;;;21.60;;
60006;SDS011;45863;50.336;3.536;2022-12-07T06:34:42;38.83;;;20.08;;
60006;SDS011;45863;50.336;3.536;2022-12-07T06:37:08;49.38;;;19.48;;
60006;SDS011;45863;50.336;3.536;2022-12-07T06:39:33;38.50;;;19.17;;
60006;SDS011;45863;50.336;3.536;2022-12-07T06:42:01;34.88;;;18.25;;
60006;SDS011;45863;50.336;3.536;2022-12-07T06:44:26;38.70;;;18.35;;
60006;SDS011;45863;50.336;3.536;2022-12-07T06:46:52;34.47;;;17.92;;
60006;SDS011;45863;50.336;3.536;2022-12-07T06:49:17;37.72;;;19.23;;
60006;SDS011;45863;50.336;3.536;2022-12-07T06:51:45;42.47;;;18.30;;
60006;SDS011;45863;50.336;3.536;2022-12-07T06:54:11;36.63;;;19.45;;
60006;SDS011;45863;50.336;3.536;2022-12-07T06:56:37;36.58;;;18.13;;
60006;SDS011;45863;50.336;3.536;2022-12-07T06:59:03;35.33;;;17.50;;
60006;SDS011;45863;50.336;3.536;2022-12-07T07:01:28;30.13;;;16.13;;
60006;SDS011;45863;50.336;3.536;2022-12-07T07:03:54;36.30;;;16.45;;
60006;SDS011;45863;50.336;3.536;2022-12-07T07:06:19;31.98;;;16.58;;
60006;SDS011;45863;50.336;3.536;2022-12-07T07:08:44;33.90;;;17.27;;
60006;SDS011;45863;50.336;3.536;2022-12-07T07:11:10;36.78;;;17.40;;
60006;SDS011;45863;50.336;3.536;2022-12-07T07:13:35;33.65;;;16.20;;
60006;SDS011;45863;50.336;3.536;2022-12-07T07:16:01;29.35;;;15.40;;
60006;SDS011;45863;50.336;3.536;2022-12-07T07:18:26;36.13;;;15.25;;
60006;SDS011;45863;50.336;3.536;2022-12-07T07:20:52;37.58;;;15.90;;
60006;SDS011;45863;50.336;3.536;2022-12-07T07:23:18;32.67;;;16.10;;
60006;SDS011;45863;50.336;3.536;2022-12-07T07:25:44;33.30;;;16.25;;
60006;SDS011;45863;50.336;3.536;2022-12-07T07:28:09;33.53;;;15.52;;
60006;SDS011;45863;50.336;3.536;2022-12-07T07:30:34;32.83;;;15.65;;
60006;SDS011;45863;50.336;3.536;2022-12-07T07:33:00;31.98;;;15.73;;
60006;SDS011;45863;50.336;3.536;2022-12-07T07:35:26;32.88;;;15.90;;
60006;SDS011;45863;50.336;3.536;2022-12-07T07:37:52;37.60;;;16.63;;
60006;SDS011;45863;50.336;3.536;2022-12-07T07:40:35;31.15;;;16.65;;
60006;SDS011;45863;50.336;3.536;2022-12-07T07:43:01;35.10;;;15.60;;
60006;SDS011;45863;50.336;3.536;2022-12-07T07:45:27;33.95;;;17.13;;
60006;SDS011;45863;50.336;3.536;2022-12-07T07:47:52;32.90;;;16.15;;
60006;SDS011;45863;50.336;3.536;2022-12-07T07:50:18;33.22;;;15.88;;
60006;SDS011;45863;50.336;3.536;2022-12-07T07:52:43;40.05;;;15.77;;
60006;SDS011;45863;50.336;3.536;2022-12-07T07:55:09;33.15;;;16.52;;
60006;SDS011;45863;50.336;3.536;2022-12-07T07:57:37;33.22;;;15.80;;
60006;SDS011;45863;50.336;3.536;2022-12-07T08:00:07;29.73;;;16.35;;
60006;SDS011;45863;50.336;3.536;2022-12-07T08:02:33;36.75;;;16.50;;
60006;SDS011;45863;50.336;3.536;2022-12-07T08:04:58;38.38;;;19.38;;
60006;SDS011;45863;50.336;3.536;2022-12-07T08:07:23;37.15;;;16.90;;
60006;SDS011;45863;50.336;3.536;2022-12-07T08:09:48;34.15;;;16.88;;
60006;SDS011;45863;50.336;3.536;2022-12-07T08:12:14;42.38;;;20.58;;
60006;SDS011;45863;50.336;3.536;2022-12-07T08:14:39;32.55;;;17.42;;
60006;SDS011;45863;50.336;3.536;2022-12-07T08:17:04;42.17;;;19.52;;
60006;SDS011;45863;50.336;3.536;2022-12-07T08:19:29;33.80;;;16.95;;
60006;SDS011;45863;50.336;3.536;2022-12-07T08:22:03;35.47;;;17.08;;
60006;SDS011;45863;50.336;3.536;2022-12-07T08:24:29;40.45;;;18.35;;
60006;SDS011;45863;50.336;3.536;2022-12-07T08:26:54;33.22;;;16.55;;
60006;SDS011;45863;50.336;3.536;2022-12-07T08:29:19;29.43;;;16.37;;
60006;SDS011;45863;50.336;3.536;2022-12-07T08:31:45;31.20;;;18.00;;
60006;SDS011;45863;50.336;3.536;2022-12-07T08:34:11;33.80;;;16.80;;
60006;SDS011;45863;50.336;3.536;2022-12-07T08:36:36;33.92;;;17.55;;
60006;SDS011;45863;50.336;3.536;2022-12-07T08:39:02;31.35;;;17.05;;
60006;SDS011;45863;50.336;3.536;2022-12-07T08:41:27;45.50;;;22.80;;
60006;SDS011;45863;50.336;3.536;2022-12-07T08:43:53;40.83;;;20.60;;
60006;SDS011;45863;50.336;3.536;2022-12-07T08:46:21;35.63;;;15.98;;
60006;SDS011;45863;50.336;3.536;2022-12-07T08:51:21;36.47;;;18.60;;
60006;SDS011;45863;50.336;3.536;2022-12-07T08:53:46;38.17;;;19.77;;
60006;SDS011;45863;50.336;3.536;2022-12-07T08:56:12;33.75;;;17.15;;
60006;SDS011;45863;50.336;3.536;2022-12-07T08:58:37;32.70;;;17.05;;
60006;SDS011;45863;50.336;3.536;2022-12-07T09:01:03;31.08;;;16.42;;
60006;SDS011;45863;50.336;3.536;2022-12-07T09:03:29;33.67;;;18.80;;
60006;SDS011;45863;50.336;3.536;2022-12-07T09:05:55;36.83;;;17.33;;
60006;SDS011;45863;50.336;3.536;2022-12-07T09:08:21;32.20;;;18.25;;
60006;SDS011;45863;50.336;3.536;2022-12-07T09:10:46;34.45;;;17.42;;
60006;SDS011;45863;50.336;3.536;2022-12-07T09:13:12;35.40;;;16.80;;
60006;SDS011;45863;50.336;3.536;2022-12-07T09:15:38;34.40;;;16.15;;
60006;SDS011;45863;50.336;3.536;2022-12-07T09:18:03;30.30;;;15.20;;
60006;SDS011;45863;50.336;3.536;2022-12-07T09:20:28;30.00;;;15.38;;
60006;SDS011;45863;50.336;3.536;2022-12-07T09:22:53;26.85;;;12.30;;
60006;SDS011;45863;50.336;3.536;2022-12-07T09:25:19;22.70;;;11.82;;
60006;SDS011;45863;50.336;3.536;2022-12-07T09:27:44;23.08;;;11.07;;
60006;SDS011;45863;50.336;3.536;2022-12-07T09:30:09;23.70;;;11.30;;
60006;SDS011;45863;50.336;3.536;2022-12-07T09:32:35;26.55;;;12.55;;
60006;SDS011;45863;50.336;3.536;2022-12-07T09:35:00;20.35;;;10.40;;
60006;SDS011;45863;50.336;3.536;2022-12-07T09:37:25;24.23;;;11.30;;
60006;SDS011;45863;50.336;3.536;2022-12-07T09:39:50;16.70;;;9.23;;
60006;SDS011;45863;50.336;3.536;2022-12-07T09:47:12;18.80;;;8.02;;
60006;SDS011;45863;50.336;3.536;2022-12-07T09:49:37;16.80;;;7.60;;
60006;SDS011;45863;50.336;3.536;2022-12-07T09:54:28;14.60;;;7.82;;
60006;SDS011;45863;50.336;3.536;2022-12-07T09:56:53;16.45;;;9.27;;
60006;SDS011;45863;50.336;3.536;2022-12-07T09:59:18;18.15;;;9.10;;
60006;SDS011;45863;50.336;3.536;2022-12-07T10:01:44;18.00;;;9.48;;
60006;SDS011;45863;50.336;3.536;2022-12-07T10:04:14;17.95;;;10.05;;
60006;SDS011;45863;50.336;3.536;2022-12-07T10:06:40;14.55;;;8.15;;
60006;SDS011;45863;50.336;3.536;2022-12-07T10:09:12;19.73;;;8.77;;
60006;SDS011;45863;50.336;3.536;2022-12-07T10:14:21;16.40;;;7.05;;
60006;SDS011;45863;50.336;3.536;2022-12-07T10:16:46;12.60;;;6.67;;
60006;SDS011;45863;50.336;3.536;2022-12-07T10:21:59;18.83;;;7.25;;
60006;SDS011;45863;50.336;3.536;2022-12-07T10:24:25;10.55;;;5.65;;
60006;SDS011;45863;50.336;3.536;2022-12-07T10:26:51;11.17;;;5.77;;
60006;SDS011;45863;50.336;3.536;2022-12-07T10:29:30;17.77;;;6.45;;
60006;SDS011;45863;50.336;3.536;2022-12-07T10:31:58;13.43;;;5.97;;
60006;SDS011;45863;50.336;3.536;2022-12-07T10:34:26;15.60;;;6.05;;
60006;SDS011;45863;50.336;3.536;2022-12-07T10:36:52;16.13;;;6.43;;
60006;SDS011;45863;50.336;3.536;2022-12-07T10:39:19;11.93;;;6.22;;
60006;SDS011;45863;50.336;3.536;2022-12-07T10:44:22;12.95;;;6.53;;
60006;SDS011;45863;50.336;3.536;2022-12-07T10:46:53;10.40;;;4.90;;
60006;SDS011;45863;50.336;3.536;2022-12-07T10:52:00;13.40;;;5.15;;
60006;SDS011;45863;50.336;3.536;2022-12-07T10:54:34;14.43;;;5.78;;
60006;SDS011;45863;50.336;3.536;2022-12-07T10:57:11;11.05;;;4.75;;
60006;SDS011;45863;50.336;3.536;2022-12-07T11:20:23;12.23;;;4.47;;
60006;SDS011;45863;50.336;3.536;2022-12-07T11:22:58;21.20;;;4.32;;
60006;SDS011;45863;50.336;3.536;2022-12-07T11:33:29;12.48;;;4.22;;
60006;SDS011;45863;50.336;3.536;2022-12-07T11:38:47;10.32;;;4.45;;
60006;SDS011;45863;50.336;3.536;2022-12-07T11:41:15;20.52;;;5.30;;
60006;SDS011;45863;50.336;3.536;2022-12-07T11:46:20;12.30;;;5.63;;
60006;SDS011;45863;50.336;3.536;2022-12-07T11:48:51;12.85;;;4.72;;
60006;SDS011;45863;50.336;3.536;2022-12-07T11:51:20;16.53;;;5.80;;
60006;SDS011;45863;50.336;3.536;2022-12-07T11:53:52;16.58;;;4.93;;
60006;SDS011;45863;50.336;3.536;2022-12-07T11:56:21;14.65;;;5.32;;
60006;SDS011;45863;50.336;3.536;2022-12-07T12:01:14;15.02;;;5.53;;
60006;SDS011;45863;50.336;3.536;2022-12-07T12:03:43;15.15;;;5.68;;
60006;SDS011;45863;50.336;3.536;2022-12-07T12:06:09;18.55;;;8.13;;
60006;SDS011;45863;50.336;3.536;2022-12-07T12:08:47;27.48;;;11.48;;
60006;SDS011;45863;50.336;3.536;2022-12-07T12:11:20;15.75;;;7.50;;
60006;SDS011;45863;50.336;3.536;2022-12-07T12:13:51;18.42;;;5.38;;
60006;SDS011;45863;50.336;3.536;2022-12-07T12:21:36;15.52;;;6.32;;
60006;SDS011;45863;50.336;3.536;2022-12-07T12:24:09;12.25;;;4.72;;
60006;SDS011;45863;50.336;3.536;2022-12-07T12:26:36;13.75;;;4.18;;
60006;SDS011;45863;50.336;3.536;2022-12-07T12:29:06;11.68;;;4.72;;
60006;SDS011;45863;50.336;3.536;2022-12-07T12:31:37;8.73;;;4.30;;
60006;SDS011;45863;50.336;3.536;2022-12-07T12:34:10;11.38;;;4.35;;
60006;SDS011;45863;50.336;3.536;2022-12-07T12:36:49;10.75;;;3.83;;
60006;SDS011;45863;50.336;3.536;2022-12-07T12:39:15;10.88;;;3.17;;
60006;SDS011;45863;50.336;3.536;2022-12-07T12:46:56;7.45;;;3.00;;
60006;SDS011;45863;50.336;3.536;2022-12-07T12:51:51;9.70;;;3.70;;
60006;SDS011;45863;50.336;3.536;2022-12-07T12:54:23;9.68;;;3.20;;
60006;SDS011;45863;50.336;3.536;2022-12-07T13:04:59;11.73;;;4.28;;
60006;SDS011;45863;50.336;3.536;2022-12-07T13:31:14;13.63;;;4.53;;
60006;SDS011;45863;50.336;3.536;2022-12-07T13:33:42;10.50;;;4.07;;
60006;SDS011;45863;50.336;3.536;2022-12-07T13:36:12;10.27;;;3.72;;
60006;SDS011;45863;50.336;3.536;2022-12-07T13:38:39;11.25;;;3.97;;
60006;SDS011;45863;50.336;3.536;2022-12-07T13:41:14;10.02;;;3.83;;
60006;SDS011;45863;50.336;3.536;2022-12-07T13:43:48;11.52;;;4.90;;
60006;SDS011;45863;50.336;3.536;2022-12-07T13:46:13;13.60;;;5.10;;
60006;SDS011;45863;50.336;3.536;2022-12-07T13:48:46;10.65;;;4.05;;
60006;SDS011;45863;50.336;3.536;2022-12-07T13:51:20;13.73;;;4.88;;
60006;SDS011;45863;50.336;3.536;2022-12-07T13:53:46;10.10;;;3.97;;
60006;SDS011;45863;50.336;3.536;2022-12-07T13:56:12;15.40;;;4.40;;
60006;SDS011;45863;50.336;3.536;2022-12-07T13:58:38;11.15;;;4.00;;
60006;SDS011;45863;50.336;3.536;2022-12-07T14:01:05;13.15;;;4.90;;
60006;SDS011;45863;50.336;3.536;2022-12-07T14:03:34;14.60;;;4.40;;
60006;SDS011;45863;50.336;3.536;2022-12-07T14:06:46;10.68;;;4.20;;
60006;SDS011;45863;50.336;3.536;2022-12-07T14:11:51;10.52;;;4.50;;
60006;SDS011;45863;50.336;3.536;2022-12-07T14:14:21;12.82;;;4.20;;
60006;SDS011;45863;50.336;3.536;2022-12-07T14:16:56;12.52;;;4.18;;
60006;SDS011;45863;50.336;3.536;2022-12-07T14:22:06;16.85;;;5.18;;
60006;SDS011;45863;50.336;3.536;2022-12-07T14:24:40;13.82;;;4.53;;
60006;SDS011;45863;50.336;3.536;2022-12-07T14:27:15;16.33;;;4.90;;
60006;SDS011;45863;50.336;3.536;2022-12-07T14:29:41;13.43;;;4.88;;
60006;SDS011;45863;50.336;3.536;2022-12-07T14:32:39;11.43;;;5.00;;
60006;SDS011;45863;50.336;3.536;2022-12-07T14:37:23;16.50;;;5.88;;
60006;SDS011;45863;50.336;3.536;2022-12-07T14:39:48;14.18;;;5.70;;
60006;SDS011;45863;50.336;3.536;2022-12-07T14:42:13;13.55;;;5.68;;
60006;SDS011;45863;50.336;3.536;2022-12-07T14:44:39;16.40;;;4.90;;
60006;SDS011;45863;50.336;3.536;2022-12-07T14:47:04;17.83;;;6.37;;
60006;SDS011;45863;50.336;3.536;2022-12-07T14:49:29;13.40;;;4.90;;
60006;SDS011;45863;50.336;3.536;2022-12-07T14:51:54;14.52;;;4.97;;
60006;SDS011;45863;50.336;3.536;2022-12-07T14:54:20;14.70;;;5.30;;
60006;SDS011;45863;50.336;3.536;2022-12-07T14:56:45;13.10;;;4.40;;
60006;SDS011;45863;50.336;3.536;2022-12-07T14:59:14;14.55;;;5.40;;
60006;SDS011;45863;50.336;3.536;2022-12-07T15:01:40;14.93;;;4.97;;
60006;SDS011;45863;50.336;3.536;2022-12-07T15:04:05;19.63;;;5.95;;
60006;SDS011;45863;50.336;3.536;2022-12-07T15:06:30;15.88;;;6.35;;
60006;SDS011;45863;50.336;3.536;2022-12-07T15:08:56;14.13;;;6.80;;
60006;SDS011;45863;50.336;3.536;2022-12-07T15:11:21;20.23;;;8.15;;
60006;SDS011;45863;50.336;3.536;2022-12-07T15:13:46;19.27;;;6.57;;
60006;SDS011;45863;50.336;3.536;2022-12-07T15:16:30;17.48;;;8.02;;
60006;SDS011;45863;50.336;3.536;2022-12-07T15:18:55;21.33;;;8.13;;
60006;SDS011;45863;50.336;3.536;2022-12-07T15:21:21;8.60;;;3.85;;
60006;SDS011;45863;50.336;3.536;2022-12-07T15:23:46;9.18;;;3.75;;
60006;SDS011;45863;50.336;3.536;2022-12-07T15:26:12;8.88;;;3.45;;
60006;SDS011;45863;50.336;3.536;2022-12-07T15:28:37;8.32;;;3.70;;
60006;SDS011;45863;50.336;3.536;2022-12-07T15:31:02;8.40;;;3.80;;
60006;SDS011;45863;50.336;3.536;2022-12-07T15:33:27;9.48;;;3.67;;
60006;SDS011;45863;50.336;3.536;2022-12-07T15:35:52;8.57;;;3.42;;
60006;SDS011;45863;50.336;3.536;2022-12-07T15:38:18;11.30;;;5.20;;
60006;SDS011;45863;50.336;3.536;2022-12-07T15:40:46;11.43;;;5.43;;
60006;SDS011;45863;50.336;3.536;2022-12-07T15:43:11;10.27;;;5.65;;
60006;SDS011;45863;50.336;3.536;2022-12-07T15:45:55;9.43;;;4.65;;
60006;SDS011;45863;50.336;3.536;2022-12-07T15:48:21;11.50;;;5.03;;
60006;SDS011;45863;50.336;3.536;2022-12-07T15:50:46;10.15;;;4.80;;
60006;SDS011;45863;50.336;3.536;2022-12-07T15:53:11;14.43;;;5.70;;
60006;SDS011;45863;50.336;3.536;2022-12-07T15:55:38;11.93;;;5.05;;
60006;SDS011;45863;50.336;3.536;2022-12-07T15:58:03;13.75;;;6.82;;
60006;SDS011;45863;50.336;3.536;2022-12-07T16:00:28;12.20;;;5.95;;
60006;SDS011;45863;50.336;3.536;2022-12-07T16:02:53;10.00;;;4.60;;
60006;SDS011;45863;50.336;3.536;2022-12-07T16:05:19;11.43;;;5.25;;
60006;SDS011;45863;50.336;3.536;2022-12-07T16:07:44;12.40;;;5.38;;
60006;SDS011;45863;50.336;3.536;2022-12-07T16:10:11;14.02;;;5.32;;
60006;SDS011;45863;50.336;3.536;2022-12-07T16:12:36;11.20;;;5.72;;
60006;SDS011;45863;50.336;3.536;2022-12-07T16:15:02;10.98;;;5.15;;
60006;SDS011;45863;50.336;3.536;2022-12-07T16:17:27;13.77;;;5.85;;
60006;SDS011;45863;50.336;3.536;2022-12-07T16:19:52;12.40;;;5.43;;
60006;SDS011;45863;50.336;3.536;2022-12-07T16:22:18;12.73;;;4.82;;
60006;SDS011;45863;50.336;3.536;2022-12-07T16:24:43;11.98;;;5.20;;
60006;SDS011;45863;50.336;3.536;2022-12-07T16:27:08;11.90;;;5.88;;
60006;SDS011;45863;50.336;3.536;2022-12-07T16:29:34;12.43;;;6.13;;
60006;SDS011;45863;50.336;3.536;2022-12-07T16:31:59;10.70;;;6.35;;
60006;SDS011;45863;50.336;3.536;2022-12-07T16:34:24;12.27;;;6.10;;
60006;SDS011;45863;50.336;3.536;2022-12-07T16:36:49;13.77;;;6.22;;
60006;SDS011;45863;50.336;3.536;2022-12-07T16:39:15;11.80;;;6.15;;
60006;SDS011;45863;50.336;3.536;2022-12-07T16:41:40;13.40;;;6.38;;
60006;SDS011;45863;50.336;3.536;2022-12-07T16:44:06;22.08;;;8.65;;
60006;SDS011;45863;50.336;3.536;2022-12-07T16:46:32;17.50;;;9.20;;
60006;SDS011;45863;50.336;3.536;2022-12-07T16:48:58;18.85;;;9.43;;
60006;SDS011;45863;50.336;3.536;2022-12-07T16:51:23;18.52;;;9.40;;
60006;SDS011;45863;50.336;3.536;2022-12-07T16:53:48;16.85;;;9.65;;
60006;SDS011;45863;50.336;3.536;2022-12-07T16:56:14;16.27;;;8.73;;